sensor_id;sensor_type;location;lat;lon;timestamp;P1;durP1;ratioP1;P2;durP2;ratioP2
29414;SDS011;20303;48.302;11.914;2023-03-14T00:03:22;6.78;;;4.60;;
29414;SDS011;20303;48.302;11.914;2023-03-14T00:13:23;6.85;;;4.22;;
29414;SDS011;20303;48.302;11.914;2023-03-14T00:23:25;5.32;;;3.65;;
29414;SDS011;20303;48.302;11.914;2023-03-14T00:33:30;5.65;;;3.70;;
29414;SDS011;20303;48.302;11.914;2023-03-14T00:43:32;7.05;;;3.85;;
29414;SDS011;20303;48.302;11.914;2023-03-14T00:53:36;6.75;;;3.55;;
29414;SDS011;20303;48.302;11.914;2023-03-14T01:03:38;4.97;;;3.30;;
29414;SDS011;20303;48.302;11.914;2023-03-14T01:13:39;4.85;;;3.35;;
29414;SDS011;20303;48.302;11.914;2023-03-14T01:23:41;6.38;;;3.38;;
29414;SDS011;20303;48.302;11.914;2023-03-14T01:33:42;8.13;;;3.13;;
29414;SDS011;20303;48.302;11.914;2023-03-14T01:43:44;5.15;;;3.00;;
29414;SDS011;20303;48.302;11.914;2023-03-14T01:53:45;4.65;;;3.05;;
29414;SDS011;20303;48.302;11.914;2023-03-14T02:03:48;4.68;;;2.95;;
29414;SDS011;20303;48.302;11.914;2023-03-14T02:13:52;4.47;;;2.78;;
29414;SDS011;20303;48.302;11.914;2023-03-14T02:34:15;3.17;;;2.25;;
29414;SDS011;20303;48.302;11.914;2023-03-14T02:44:16;3.55;;;2.30;;
29414;SDS011;20303;48.302;11.914;2023-03-14T02:54:17;3.30;;;2.20;;
29414;SDS011;20303;48.302;11.914;2023-03-14T03:04:18;3.55;;;2.10;;
29414;SDS011;20303;48.302;11.914;2023-03-14T03:14:19;2.92;;;2.00;;
29414;SDS011;20303;48.302;11.914;2023-03-14T03:24:20;3.50;;;2.10;;
29414;SDS011;20303;48.302;11.914;2023-03-14T03:34:21;4.30;;;2.28;;
29414;SDS011;20303;48.302;11.914;2023-03-14T03:44:22;2.55;;;1.92;;
29414;SDS011;20303;48.302;11.914;2023-03-14T03:54:23;2.72;;;1.80;;
29414;SDS011;20303;48.302;11.914;2023-03-14T04:04:25;3.15;;;1.65;;
29414;SDS011;20303;48.302;11.914;2023-03-14T04:14:26;2.75;;;1.70;;
29414;SDS011;20303;48.302;11.914;2023-03-14T04:24:27;3.38;;;1.60;;
29414;SDS011;20303;48.302;11.914;2023-03-14T04:34:28;4.70;;;1.63;;
29414;SDS011;20303;48.302;11.914;2023-03-14T04:44:29;2.67;;;1.65;;
29414;SDS011;20303;48.302;11.914;2023-03-14T04:54:30;2.65;;;1.60;;
29414;SDS011;20303;48.302;11.914;2023-03-14T05:04:31;4.28;;;1.70;;
29414;SDS011;20303;48.302;11.914;2023-03-14T05:14:33;5.68;;;1.73;;
29414;SDS011;20303;48.302;11.914;2023-03-14T05:24:34;4.40;;;1.60;;
29414;SDS011;20303;48.302;11.914;2023-03-14T05:34:35;3.63;;;1.58;;
29414;SDS011;20303;48.302;11.914;2023-03-14T05:44:36;2.40;;;1.40;;
29414;SDS011;20303;48.302;11.914;2023-03-14T05:54:37;4.13;;;1.63;;
29414;SDS011;20303;48.302;11.914;2023-03-14T06:04:38;3.97;;;1.52;;
29414;SDS011;20303;48.302;11.914;2023-03-14T06:14:39;3.85;;;1.45;;
29414;SDS011;20303;48.302;11.914;2023-03-14T06:24:40;3.17;;;1.50;;
29414;SDS011;20303;48.302;11.914;2023-03-14T06:34:41;4.85;;;1.48;;
29414;SDS011;20303;48.302;11.914;2023-03-14T06:44:42;4.90;;;1.50;;
29414;SDS011;20303;48.302;11.914;2023-03-14T06:54:43;5.63;;;1.50;;
29414;SDS011;20303;48.302;11.914;2023-03-14T07:04:44;4.28;;;1.40;;
29414;SDS011;20303;48.302;11.914;2023-03-14T07:14:45;4.60;;;1.50;;
29414;SDS011;20303;48.302;11.914;2023-03-14T07:24:46;0.95;;;0.63;;
29414;SDS011;20303;48.302;11.914;2023-03-14T07:34:47;1.23;;;0.60;;
29414;SDS011;20303;48.302;11.914;2023-03-14T07:44:48;2.70;;;0.80;;
29414;SDS011;20303;48.302;11.914;2023-03-14T07:54:49;3.10;;;0.82;;
29414;SDS011;20303;48.302;11.914;2023-03-14T08:04:50;4.28;;;0.90;;
29414;SDS011;20303;48.302;11.914;2023-03-14T08:14:51;3.33;;;1.10;;
29414;SDS011;20303;48.302;11.914;2023-03-14T08:24:53;2.38;;;1.13;;
29414;SDS011;20303;48.302;11.914;2023-03-14T08:34:54;3.50;;;1.00;;
29414;SDS011;20303;48.302;11.914;2023-03-14T08:44:55;3.58;;;1.00;;
29414;SDS011;20303;48.302;11.914;2023-03-14T08:54:56;2.78;;;0.80;;
29414;SDS011;20303;48.302;11.914;2023-03-14T09:04:57;1.77;;;0.90;;
29414;SDS011;20303;48.302;11.914;2023-03-14T09:14:59;2.83;;;0.80;;
29414;SDS011;20303;48.302;11.914;2023-03-14T09:25:00;1.80;;;0.80;;
29414;SDS011;20303;48.302;11.914;2023-03-14T09:35:02;1.30;;;0.73;;
29414;SDS011;20303;48.302;11.914;2023-03-14T09:45:04;4.05;;;0.80;;
29414;SDS011;20303;48.302;11.914;2023-03-14T09:55:11;1.80;;;0.70;;
29414;SDS011;20303;48.302;11.914;2023-03-14T10:05:18;2.22;;;0.85;;
29414;SDS011;20303;48.302;11.914;2023-03-14T10:15:26;3.10;;;0.90;;
29414;SDS011;20303;48.302;11.914;2023-03-14T10:25:31;3.55;;;1.05;;
29414;SDS011;20303;48.302;11.914;2023-03-14T10:35:34;1.40;;;0.70;;
29414;SDS011;20303;48.302;11.914;2023-03-14T10:45:39;2.08;;;0.80;;
29414;SDS011;20303;48.302;11.914;2023-03-14T10:55:43;6.03;;;0.82;;
29414;SDS011;20303;48.302;11.914;2023-03-14T11:05:53;4.60;;;1.00;;
29414;SDS011;20303;48.302;11.914;2023-03-14T11:36:35;5.15;;;1.05;;
29414;SDS011;20303;48.302;11.914;2023-03-14T11:46:43;6.85;;;1.00;;
29414;SDS011;20303;48.302;11.914;2023-03-14T11:56:51;2.97;;;1.00;;
29414;SDS011;20303;48.302;11.914;2023-03-14T12:06:54;3.60;;;1.00;;
29414;SDS011;20303;48.302;11.914;2023-03-14T12:17:13;9.15;;;1.20;;
29414;SDS011;20303;48.302;11.914;2023-03-14T12:27:39;5.30;;;1.60;;
29414;SDS011;20303;48.302;11.914;2023-03-14T12:37:45;5.80;;;1.70;;
29414;SDS011;20303;48.302;11.914;2023-03-14T12:47:50;13.80;;;2.30;;
29414;SDS011;20303;48.302;11.914;2023-03-14T12:57:59;7.95;;;1.77;;
29414;SDS011;20303;48.302;11.914;2023-03-14T13:18:16;6.03;;;1.50;;
29414;SDS011;20303;48.302;11.914;2023-03-14T13:28:27;10.70;;;2.20;;
29414;SDS011;20303;48.302;11.914;2023-03-14T13:38:31;11.43;;;2.42;;
29414;SDS011;20303;48.302;11.914;2023-03-14T13:48:35;12.95;;;2.30;;
29414;SDS011;20303;48.302;11.914;2023-03-14T13:58:52;11.00;;;2.20;;
29414;SDS011;20303;48.302;11.914;2023-03-14T14:08:57;11.40;;;2.00;;
29414;SDS011;20303;48.302;11.914;2023-03-14T14:19:01;10.70;;;2.10;;
29414;SDS011;20303;48.302;11.914;2023-03-14T14:29:04;12.93;;;2.10;;
29414;SDS011;20303;48.302;11.914;2023-03-14T14:39:11;9.07;;;2.08;;
29414;SDS011;20303;48.302;11.914;2023-03-14T14:49:20;9.85;;;2.25;;
29414;SDS011;20303;48.302;11.914;2023-03-14T14:59:22;15.23;;;2.33;;
29414;SDS011;20303;48.302;11.914;2023-03-14T15:09:30;8.10;;;1.80;;
29414;SDS011;20303;48.302;11.914;2023-03-14T15:19:31;6.90;;;1.92;;
29414;SDS011;20303;48.302;11.914;2023-03-14T15:29:32;4.57;;;1.60;;
29414;SDS011;20303;48.302;11.914;2023-03-14T15:39:34;5.40;;;1.80;;
29414;SDS011;20303;48.302;11.914;2023-03-14T15:49:35;4.82;;;1.67;;
29414;SDS011;20303;48.302;11.914;2023-03-14T15:59:36;3.97;;;1.40;;
29414;SDS011;20303;48.302;11.914;2023-03-14T16:09:37;5.70;;;1.63;;
29414;SDS011;20303;48.302;11.914;2023-03-14T16:19:38;4.97;;;1.50;;
29414;SDS011;20303;48.302;11.914;2023-03-14T16:29:40;7.30;;;1.60;;
29414;SDS011;20303;48.302;11.914;2023-03-14T16:39:42;5.10;;;1.50;;
29414;SDS011;20303;48.302;11.914;2023-03-14T16:49:43;6.25;;;1.42;;
29414;SDS011;20303;48.302;11.914;2023-03-14T16:59:44;7.63;;;1.60;;
29414;SDS011;20303;48.302;11.914;2023-03-14T17:09:46;4.63;;;1.30;;
29414;SDS011;20303;48.302;11.914;2023-03-14T17:19:47;7.75;;;1.35;;
29414;SDS011;20303;48.302;11.914;2023-03-14T17:29:48;6.45;;;1.58;;
29414;SDS011;20303;48.302;11.914;2023-03-14T17:39:49;3.28;;;1.20;;
29414;SDS011;20303;48.302;11.914;2023-03-14T17:49:50;2.05;;;1.20;;
29414;SDS011;20303;48.302;11.914;2023-03-14T17:59:51;3.75;;;1.30;;
29414;SDS011;20303;48.302;11.914;2023-03-14T18:09:52;4.03;;;1.30;;
29414;SDS011;20303;48.302;11.914;2023-03-14T18:19:54;7.15;;;1.60;;
29414;SDS011;20303;48.302;11.914;2023-03-14T18:29:56;6.20;;;1.27;;
29414;SDS011;20303;48.302;11.914;2023-03-14T18:39:57;6.30;;;1.40;;
29414;SDS011;20303;48.302;11.914;2023-03-14T18:49:58;3.60;;;1.60;;
29414;SDS011;20303;48.302;11.914;2023-03-14T18:59:59;4.43;;;1.58;;
29414;SDS011;20303;48.302;11.914;2023-03-14T19:10:00;6.03;;;2.53;;
29414;SDS011;20303;48.302;11.914;2023-03-14T19:20:01;7.03;;;3.00;;
29414;SDS011;20303;48.302;11.914;2023-03-14T19:30:03;8.27;;;3.47;;
29414;SDS011;20303;48.302;11.914;2023-03-14T19:40:04;7.57;;;3.50;;
29414;SDS011;20303;48.302;11.914;2023-03-14T19:50:08;7.50;;;3.92;;
29414;SDS011;20303;48.302;11.914;2023-03-14T20:00:10;7.65;;;3.75;;
29414;SDS011;20303;48.302;11.914;2023-03-14T20:10:17;7.35;;;4.20;;
29414;SDS011;20303;48.302;11.914;2023-03-14T20:20:21;10.07;;;4.78;;
29414;SDS011;20303;48.302;11.914;2023-03-14T20:30:22;9.25;;;5.32;;
29414;SDS011;20303;48.302;11.914;2023-03-14T20:40:24;9.20;;;5.57;;
29414;SDS011;20303;48.302;11.914;2023-03-14T20:50:27;12.27;;;6.47;;
29414;SDS011;20303;48.302;11.914;2023-03-14T21:00:28;14.75;;;7.20;;
29414;SDS011;20303;48.302;11.914;2023-03-14T21:10:29;12.52;;;7.75;;
29414;SDS011;20303;48.302;11.914;2023-03-14T21:20:31;14.45;;;9.02;;
29414;SDS011;20303;48.302;11.914;2023-03-14T21:30:33;15.02;;;9.23;;
29414;SDS011;20303;48.302;11.914;2023-03-14T21:40:35;18.98;;;10.77;;
29414;SDS011;20303;48.302;11.914;2023-03-14T21:50:36;28.25;;;13.00;;
29414;SDS011;20303;48.302;11.914;2023-03-14T22:00:37;27.75;;;13.75;;
29414;SDS011;20303;48.302;11.914;2023-03-14T22:10:42;32.33;;;15.45;;
29414;SDS011;20303;48.302;11.914;2023-03-14T22:20:47;34.72;;;17.92;;
29414;SDS011;20303;48.302;11.914;2023-03-14T22:30:48;32.20;;;18.48;;
29414;SDS011;20303;48.302;11.914;2023-03-14T22:40:50;36.35;;;19.25;;
29414;SDS011;20303;48.302;11.914;2023-03-14T22:50:51;32.58;;;17.80;;
29414;SDS011;20303;48.302;11.914;2023-03-14T23:00:52;29.60;;;17.60;;
29414;SDS011;20303;48.302;11.914;2023-03-14T23:11:00;26.85;;;16.02;;
29414;SDS011;20303;48.302;11.914;2023-03-14T23:21:09;28.95;;;16.25;;
29414;SDS011;20303;48.302;11.914;2023-03-14T23:31:11;26.98;;;15.73;;
29414;SDS011;20303;48.302;11.914;2023-03-14T23:41:13;25.17;;;14.43;;
29414;SDS011;20303;48.302;11.914;2023-03-14T23:51:14;24.13;;;13.20;;
